createdAt,value
2023-01-21T00:00:01.074Z,1.9
2023-01-21T00:01:01.010Z,1.5
2023-01-21T00:02:00.877Z,1.5
2023-01-21T00:03:00.784Z,1.5
2023-01-21T00:04:00.859Z,1.5
2023-01-21T00:05:00.942Z,1.5
2023-01-21T00:06:01.167Z,1.5
2023-01-21T00:07:00.798Z,1.5
2023-01-21T00:08:02.644Z,1.5
2023-01-21T00:09:00.807Z,1.5
2023-01-21T00:10:00.779Z,1.5
2023-01-21T00:11:04.680Z,1.3
2023-01-21T00:12:01.085Z,1.3
2023-01-21T00:13:00.896Z,1.3
2023-01-21T00:14:00.754Z,1.3
2023-01-21T00:15:00.764Z,1.3
2023-01-21T00:16:02.015Z,1.3
2023-01-21T00:17:00.819Z,1.3
2023-01-21T00:18:00.786Z,1.3
2023-01-21T00:19:00.787Z,1.3
2023-01-21T00:20:04.966Z,1.3
2023-01-21T00:21:00.762Z,1.1
2023-01-21T00:22:00.765Z,1.1
2023-01-21T00:23:00.910Z,1.1
2023-01-21T00:24:00.783Z,1.1
2023-01-21T00:25:01.219Z,1.1
2023-01-21T00:26:01.811Z,1.1
2023-01-21T00:27:01.000Z,1.1
2023-01-21T00:28:00.748Z,1.1
2023-01-21T00:29:00.798Z,1.1
2023-01-21T00:30:00.777Z,1.1
2023-01-21T00:31:01.871Z,1.5
2023-01-21T00:32:00.850Z,1.5
2023-01-21T00:33:00.781Z,1.5
2023-01-21T00:34:00.854Z,1.5
2023-01-21T00:35:00.779Z,1.5
2023-01-21T00:36:03.532Z,1.5
2023-01-21T00:37:00.798Z,1.5
2023-01-21T00:38:00.955Z,1.5
2023-01-21T00:39:00.794Z,1.5
2023-01-21T00:40:00.812Z,1.5
2023-01-21T00:41:01.908Z,1.0
2023-01-21T00:42:00.811Z,1.0
2023-01-21T00:43:00.773Z,1.0
2023-01-21T00:44:00.789Z,1.0
2023-01-21T00:45:00.754Z,1.0
2023-01-21T00:46:01.298Z,1.0
2023-01-21T00:47:00.805Z,1.0
2023-01-21T00:48:00.916Z,1.0
2023-01-21T00:49:00.896Z,1.0
2023-01-21T00:50:00.826Z,1.0
2023-01-21T00:51:01.213Z,1.1
2023-01-21T00:52:00.947Z,1.1
2023-01-21T00:53:00.750Z,1.1
2023-01-21T00:54:00.761Z,1.1
2023-01-21T00:55:00.821Z,1.1
2023-01-21T00:56:01.463Z,1.1
2023-01-21T00:57:00.761Z,1.1
2023-01-21T00:58:00.798Z,1.1
2023-01-21T00:59:00.769Z,1.1
2023-01-21T01:00:00.902Z,1.1
2023-01-21T01:01:00.756Z,1.2
2023-01-21T01:02:00.805Z,1.2
2023-01-21T01:03:00.820Z,1.2
2023-01-21T01:04:00.841Z,1.2
2023-01-21T01:05:00.793Z,1.2
2023-01-21T01:06:01.741Z,1.2
2023-01-21T01:07:00.775Z,1.2
2023-01-21T01:08:00.756Z,1.2
2023-01-21T01:09:00.788Z,1.2
2023-01-21T01:10:00.863Z,1.2
2023-01-21T01:11:01.162Z,1.2
2023-01-21T01:12:00.809Z,1.2
2023-01-21T01:13:00.779Z,1.2
2023-01-21T01:14:00.763Z,1.2
2023-01-21T01:15:01.146Z,1.2
2023-01-21T01:16:00.979Z,1.2
2023-01-21T01:17:00.747Z,1.2
2023-01-21T01:18:00.745Z,1.2
2023-01-21T01:19:01.025Z,1.2
2023-01-21T01:20:01.030Z,1.2
2023-01-21T01:21:00.933Z,1.1
2023-01-21T01:22:01.002Z,1.1
2023-01-21T01:23:00.757Z,1.1
2023-01-21T01:24:00.778Z,1.1
2023-01-21T01:25:00.756Z,1.1
2023-01-21T01:26:03.549Z,1.1
2023-01-21T01:27:00.795Z,1.1
2023-01-21T01:28:00.758Z,1.1
2023-01-21T01:29:01.775Z,1.1
2023-01-21T01:30:00.795Z,1.1
2023-01-21T01:31:03.128Z,1.0
2023-01-21T01:32:00.907Z,1.0
2023-01-21T01:33:01.060Z,1.0
2023-01-21T01:34:00.945Z,1.0
2023-01-21T01:35:00.784Z,1.0
2023-01-21T01:36:01.598Z,1.0
2023-01-21T01:37:00.764Z,1.0
2023-01-21T01:38:00.875Z,1.0
2023-01-21T01:39:00.736Z,1.0
2023-01-21T01:40:00.755Z,1.0
2023-01-21T01:41:01.268Z,1.1
2023-01-21T01:42:00.739Z,1.1
2023-01-21T01:43:00.738Z,1.1
2023-01-21T01:44:03.054Z,1.1
2023-01-21T01:45:03.305Z,1.1
2023-01-21T01:46:00.767Z,1.1
2023-01-21T01:47:02.705Z,1.1
2023-01-21T01:48:02.057Z,1.1
2023-01-21T01:49:04.781Z,1.1
2023-01-21T01:50:01.215Z,1.1
2023-01-21T01:51:03.083Z,1.0
2023-01-21T01:52:02.125Z,1.0
2023-01-21T01:53:01.119Z,1.0
2023-01-21T01:54:00.977Z,1.0
2023-01-21T01:55:01.737Z,1.0
2023-01-21T01:56:00.919Z,1.0
2023-01-21T01:57:02.254Z,1.0
2023-01-21T01:58:02.299Z,1.0
2023-01-21T01:59:00.916Z,1.0
2023-01-21T02:00:05.193Z,1.0
2023-01-21T02:01:00.940Z,1.1
2023-01-21T02:02:09.089Z,1.1
2023-01-21T02:04:03.496Z,1.1
2023-01-21T02:05:03.326Z,1.1
2023-01-21T02:06:01.578Z,1.1
2023-01-21T02:07:01.269Z,1.1
2023-01-21T02:08:00.888Z,1.1
2023-01-21T02:09:00.839Z,1.1
2023-01-21T02:10:01.326Z,1.1
2023-01-21T02:11:01.230Z,1.2
2023-01-21T02:12:02.164Z,1.2
2023-01-21T02:13:01.400Z,1.2
2023-01-21T02:14:01.093Z,1.2
2023-01-21T02:15:01.173Z,1.2
2023-01-21T02:16:10.637Z,1.2
2023-01-21T02:17:04.118Z,1.2
2023-01-21T02:18:09.052Z,1.2
2023-01-21T02:19:10.621Z,1.2
2023-01-21T02:20:08.211Z,1.2
2023-01-21T02:21:10.648Z,0.9
2023-01-21T02:22:10.678Z,0.9
2023-01-21T02:23:07.963Z,0.9
2023-01-21T02:24:01.790Z,0.9
2023-01-21T02:25:10.666Z,0.9
2023-01-21T02:26:00.736Z,0.9
2023-01-21T02:27:10.654Z,0.9
2023-01-21T02:28:12.738Z,0.9
2023-01-21T02:29:10.627Z,0.9
2023-01-21T02:30:00.782Z,0.9
2023-01-21T02:31:10.893Z,1.0
2023-01-21T02:32:00.743Z,1.0
2023-01-21T02:33:01.774Z,1.0
2023-01-21T02:34:10.648Z,1.0
2023-01-21T02:35:11.812Z,1.0
2023-01-21T02:36:01.804Z,1.0
2023-01-21T02:37:07.801Z,1.0
2023-01-21T02:38:10.645Z,1.0
2023-01-21T02:39:10.620Z,1.0
2023-01-21T02:40:00.726Z,1.0
2023-01-21T02:41:05.939Z,1.0
2023-01-21T02:42:04.215Z,1.0
2023-01-21T02:43:04.681Z,1.0
2023-01-21T02:44:10.616Z,1.0
2023-01-21T02:45:04.074Z,1.0
2023-01-21T02:46:04.957Z,1.0
2023-01-21T02:47:09.777Z,1.0
2023-01-21T02:48:04.888Z,1.0
2023-01-21T02:49:08.659Z,1.0
2023-01-21T02:50:03.551Z,1.0
2023-01-21T02:51:00.986Z,1.0
2023-01-21T02:52:00.739Z,1.0
2023-01-21T02:53:01.994Z,1.0
2023-01-21T02:54:10.680Z,1.0
2023-01-21T02:55:01.473Z,1.0
2023-01-21T02:56:04.327Z,1.0
2023-01-21T02:57:01.018Z,1.0
2023-01-21T02:58:03.062Z,1.0
2023-01-21T02:59:02.673Z,1.0
2023-01-21T03:00:05.478Z,1.0
2023-01-21T03:01:10.737Z,0.9
2023-01-21T03:02:00.809Z,0.9
2023-01-21T03:03:10.629Z,0.9
2023-01-21T03:04:01.774Z,0.9
2023-01-21T03:05:10.644Z,0.9
2023-01-21T03:06:10.659Z,0.9
2023-01-21T03:07:04.130Z,0.9
2023-01-21T03:08:05.924Z,0.9
2023-01-21T03:09:10.624Z,0.9
2023-01-21T03:10:05.979Z,0.9
2023-01-21T03:11:10.644Z,0.9
2023-01-21T03:12:06.316Z,0.9
2023-01-21T03:13:04.684Z,0.9
2023-01-21T03:14:10.658Z,0.9
2023-01-21T03:15:00.778Z,0.9
2023-01-21T03:16:02.250Z,0.9
2023-01-21T03:17:06.020Z,0.9
2023-01-21T03:18:08.790Z,0.9
2023-01-21T03:19:03.565Z,0.9
2023-01-21T03:20:00.763Z,0.9
2023-01-21T03:21:02.879Z,0.8
2023-01-21T03:22:02.967Z,0.8
2023-01-21T03:23:03.112Z,0.8
2023-01-21T03:24:01.458Z,0.8
2023-01-21T03:25:01.272Z,0.8
2023-01-21T03:26:01.607Z,0.8
2023-01-21T03:27:02.239Z,0.8
2023-01-21T03:28:03.743Z,0.8
2023-01-21T03:29:05.093Z,0.8
2023-01-21T03:30:09.054Z,0.8
2023-01-21T03:31:10.805Z,0.8
2023-01-21T03:32:03.482Z,0.8
2023-01-21T03:33:01.772Z,0.8
2023-01-21T03:34:02.986Z,0.8
2023-01-21T03:35:02.159Z,0.8
2023-01-21T03:36:05.320Z,0.8
2023-01-21T03:37:06.633Z,0.8
2023-01-21T03:38:08.110Z,0.8
2023-01-21T03:39:05.069Z,0.8
2023-01-21T03:40:08.809Z,0.8
2023-01-21T03:41:04.502Z,1.2
2023-01-21T03:42:01.332Z,1.2
2023-01-21T03:43:01.362Z,1.2
2023-01-21T03:44:00.975Z,1.2
2023-01-21T03:45:01.064Z,1.2
2023-01-21T03:46:04.292Z,1.2
2023-01-21T03:47:05.192Z,1.2
2023-01-21T03:48:05.472Z,1.2
2023-01-21T03:49:05.236Z,1.2
2023-01-21T03:50:10.629Z,1.2
2023-01-21T03:51:05.548Z,1.0
2023-01-21T03:52:02.706Z,1.0
2023-01-21T03:53:00.928Z,1.0
2023-01-21T03:54:00.823Z,1.0
2023-01-21T03:55:01.072Z,1.0
2023-01-21T03:56:00.789Z,1.0
2023-01-21T03:57:00.823Z,1.0
2023-01-21T03:58:00.911Z,1.0
2023-01-21T03:59:00.759Z,1.0
2023-01-21T04:00:01.057Z,1.0
2023-01-21T04:01:00.764Z,1.0
2023-01-21T04:02:00.780Z,0.9
2023-01-21T04:03:00.821Z,0.9
2023-01-21T04:04:00.784Z,0.9
2023-01-21T04:05:00.956Z,0.9
2023-01-21T04:06:00.960Z,0.9
2023-01-21T04:07:00.746Z,0.9
2023-01-21T04:08:00.767Z,0.9
2023-01-21T04:09:00.861Z,0.9
2023-01-21T04:10:00.796Z,0.9
2023-01-21T04:11:00.748Z,0.9
2023-01-21T04:12:00.772Z,0.8
2023-01-21T04:13:00.811Z,0.8
2023-01-21T04:14:00.819Z,0.8
2023-01-21T04:15:01.193Z,0.8
2023-01-21T04:16:00.784Z,0.8
2023-01-21T04:17:00.958Z,0.8
2023-01-21T04:18:00.752Z,0.8
2023-01-21T04:19:00.741Z,0.8
2023-01-21T04:20:00.749Z,0.8
2023-01-21T04:21:00.806Z,0.8
2023-01-21T04:22:00.896Z,0.8
2023-01-21T04:23:00.747Z,0.8
2023-01-21T04:24:00.771Z,0.8
2023-01-21T04:25:01.050Z,0.8
2023-01-21T04:26:00.798Z,0.8
2023-01-21T04:27:00.927Z,0.8
2023-01-21T04:28:00.887Z,0.8
2023-01-21T04:29:00.846Z,0.8
2023-01-21T04:30:00.796Z,0.8
2023-01-21T04:31:00.851Z,0.8
2023-01-21T04:32:00.869Z,1.1
2023-01-21T04:33:00.748Z,1.1
2023-01-21T04:34:00.851Z,1.1
2023-01-21T04:35:00.741Z,1.1
2023-01-21T04:36:00.787Z,1.1
2023-01-21T04:37:00.811Z,1.1
2023-01-21T04:38:00.866Z,1.1
2023-01-21T04:39:00.927Z,1.1
2023-01-21T04:40:00.786Z,1.1
2023-01-21T04:41:00.776Z,1.1
2023-01-21T04:42:00.762Z,0.9
2023-01-21T04:43:00.808Z,0.9
2023-01-21T04:44:00.825Z,0.9
2023-01-21T04:45:00.797Z,0.9
2023-01-21T04:46:01.529Z,0.9
2023-01-21T04:47:00.767Z,0.9
2023-01-21T04:48:00.798Z,0.9
2023-01-21T04:49:00.749Z,0.9
2023-01-21T04:50:01.205Z,0.9
2023-01-21T04:51:00.870Z,0.9
2023-01-21T04:52:00.782Z,1.2
2023-01-21T04:53:00.754Z,1.2
2023-01-21T04:54:00.758Z,1.2
2023-01-21T04:55:00.786Z,1.2
2023-01-21T04:56:01.037Z,1.2
2023-01-21T04:57:00.744Z,1.2
2023-01-21T04:58:00.770Z,1.2
2023-01-21T04:59:00.810Z,1.2
2023-01-21T05:00:00.913Z,1.2
2023-01-21T05:01:00.927Z,1.2
2023-01-21T05:02:00.815Z,0.9
2023-01-21T05:03:00.786Z,0.9
2023-01-21T05:04:00.742Z,0.9
2023-01-21T05:05:00.776Z,0.9
2023-01-21T05:06:00.745Z,0.9
2023-01-21T05:07:00.761Z,0.9
2023-01-21T05:08:00.772Z,0.9
2023-01-21T05:09:00.775Z,0.9
2023-01-21T05:10:00.752Z,0.9
2023-01-21T05:11:00.783Z,0.9
2023-01-21T05:12:00.912Z,1.2
2023-01-21T05:13:00.775Z,1.2
2023-01-21T05:14:00.773Z,1.2
2023-01-21T05:15:00.821Z,1.2
2023-01-21T05:16:03.008Z,1.2
2023-01-21T05:17:00.826Z,1.2
2023-01-21T05:18:00.732Z,1.2
2023-01-21T05:19:00.776Z,1.2
2023-01-21T05:20:00.962Z,1.2
2023-01-21T05:21:00.743Z,1.2
2023-01-21T05:22:00.774Z,0.8
2023-01-21T05:23:00.965Z,0.8
2023-01-21T05:24:00.759Z,0.8
2023-01-21T05:25:00.776Z,0.8
2023-01-21T05:26:00.838Z,0.8
2023-01-21T05:27:00.776Z,0.8
2023-01-21T05:28:00.847Z,0.8
2023-01-21T05:29:00.761Z,0.8
2023-01-21T05:30:00.754Z,0.8
2023-01-21T05:31:01.775Z,0.8
2023-01-21T05:32:00.977Z,1.0
2023-01-21T05:33:00.766Z,1.0
2023-01-21T05:34:00.893Z,1.0
2023-01-21T05:35:00.852Z,1.0
2023-01-21T05:36:01.294Z,1.0
2023-01-21T05:37:00.765Z,1.0
2023-01-21T05:38:00.778Z,1.0
2023-01-21T05:39:01.140Z,1.0
2023-01-21T05:40:00.769Z,1.0
2023-01-21T05:41:01.564Z,1.0
2023-01-21T05:42:00.839Z,1.0
2023-01-21T05:43:00.776Z,1.0
2023-01-21T05:44:00.967Z,1.0
2023-01-21T05:45:00.993Z,1.0
2023-01-21T05:46:00.807Z,1.0
2023-01-21T05:47:00.958Z,1.0
2023-01-21T05:48:00.775Z,1.0
2023-01-21T05:49:01.068Z,1.0
2023-01-21T05:50:00.757Z,1.0
2023-01-21T05:51:00.904Z,1.0
2023-01-21T05:52:00.804Z,0.9
2023-01-21T05:53:00.783Z,0.9
2023-01-21T05:54:00.744Z,0.9
2023-01-21T05:55:02.446Z,0.9
2023-01-21T05:56:01.123Z,0.9
2023-01-21T05:57:00.743Z,0.9
2023-01-21T05:58:00.813Z,0.9
2023-01-21T05:59:00.809Z,0.9
2023-01-21T06:00:00.953Z,0.9
2023-01-21T06:01:00.734Z,0.9
2023-01-21T06:02:00.907Z,1.0
2023-01-21T06:03:01.189Z,1.0
2023-01-21T06:04:00.781Z,1.0
2023-01-21T06:05:00.787Z,1.0
2023-01-21T06:06:00.794Z,1.0
2023-01-21T06:07:00.930Z,1.0
2023-01-21T06:08:00.813Z,1.0
2023-01-21T06:09:00.756Z,1.0
2023-01-21T06:10:00.829Z,1.0
2023-01-21T06:11:00.782Z,1.0
2023-01-21T06:12:00.871Z,1.0
2023-01-21T06:13:00.768Z,1.0
2023-01-21T06:14:00.785Z,1.0
2023-01-21T06:15:00.810Z,1.0
2023-01-21T06:16:00.942Z,1.0
2023-01-21T06:17:00.737Z,1.0
2023-01-21T06:18:01.004Z,1.0
2023-01-21T06:19:00.919Z,1.0
2023-01-21T06:20:00.745Z,1.0
2023-01-21T06:21:01.016Z,1.0
2023-01-21T06:22:00.764Z,1.1
2023-01-21T06:23:01.371Z,1.1
2023-01-21T06:24:00.750Z,1.1
2023-01-21T06:25:00.725Z,1.1
2023-01-21T06:26:01.192Z,1.1
2023-01-21T06:27:00.735Z,1.1
2023-01-21T06:28:00.742Z,1.1
2023-01-21T06:29:00.981Z,1.1
2023-01-21T06:30:00.751Z,1.1
2023-01-21T06:31:01.873Z,1.1
2023-01-21T06:32:00.888Z,1.0
2023-01-21T06:33:00.784Z,1.0
2023-01-21T06:34:00.744Z,1.0
2023-01-21T06:35:00.897Z,1.0
2023-01-21T06:36:00.802Z,1.0
2023-01-21T06:37:00.770Z,1.0
2023-01-21T06:38:00.733Z,1.0
2023-01-21T06:39:00.736Z,1.0
2023-01-21T06:40:01.027Z,1.0
2023-01-21T06:41:01.140Z,1.0
2023-01-21T06:42:01.133Z,0.9
2023-01-21T06:43:00.783Z,0.9
2023-01-21T06:44:00.857Z,0.9
2023-01-21T06:45:00.761Z,0.9
2023-01-21T06:46:00.805Z,0.9
2023-01-21T06:47:01.695Z,0.9
2023-01-21T06:48:00.787Z,0.9
2023-01-21T06:49:00.801Z,0.9
2023-01-21T06:50:00.804Z,0.9
2023-01-21T06:51:01.321Z,0.9
2023-01-21T06:52:00.816Z,1.0
2023-01-21T06:53:00.756Z,1.0
2023-01-21T06:54:00.906Z,1.0
2023-01-21T06:55:00.757Z,1.0
2023-01-21T06:56:00.739Z,1.0
2023-01-21T06:57:00.956Z,1.0
2023-01-21T06:58:00.790Z,1.0
2023-01-21T06:59:00.767Z,1.0
2023-01-21T07:00:00.790Z,1.0
2023-01-21T07:01:00.827Z,1.0
2023-01-21T07:02:00.914Z,1.1
2023-01-21T07:03:01.053Z,1.1
2023-01-21T07:04:00.793Z,1.1
2023-01-21T07:05:01.013Z,1.1
2023-01-21T07:06:00.741Z,1.1
2023-01-21T07:07:00.802Z,1.1
2023-01-21T07:08:00.918Z,1.1
2023-01-21T07:09:00.926Z,1.1
2023-01-21T07:10:00.832Z,1.1
2023-01-21T07:11:00.774Z,1.1
2023-01-21T07:12:00.766Z,1.2
2023-01-21T07:13:00.983Z,1.2
2023-01-21T07:14:00.732Z,1.2
2023-01-21T07:15:00.886Z,1.2
2023-01-21T07:16:00.872Z,1.2
2023-01-21T07:17:00.756Z,1.2
2023-01-21T07:18:00.788Z,1.2
2023-01-21T07:19:00.977Z,1.2
2023-01-21T07:20:00.765Z,1.2
2023-01-21T07:21:00.908Z,1.2
2023-01-21T07:22:00.775Z,1.5
2023-01-21T07:23:00.745Z,1.5
2023-01-21T07:24:00.920Z,1.5
2023-01-21T07:25:00.826Z,1.5
2023-01-21T07:26:00.782Z,1.5
2023-01-21T07:27:00.786Z,1.5
2023-01-21T07:28:00.879Z,1.5
2023-01-21T07:29:01.964Z,1.5
2023-01-21T07:30:00.782Z,1.5
2023-01-21T07:31:01.816Z,1.5
2023-01-21T07:32:00.902Z,1.2
2023-01-21T07:33:08.660Z,1.2
2023-01-21T07:34:01.138Z,1.2
2023-01-21T07:35:00.874Z,1.2
2023-01-21T07:36:00.756Z,1.2
2023-01-21T07:37:00.740Z,1.2
2023-01-21T07:38:00.829Z,1.2
2023-01-21T07:39:00.818Z,1.2
2023-01-21T07:40:00.862Z,1.2
2023-01-21T07:41:00.780Z,1.2
2023-01-21T07:42:00.775Z,1.9
2023-01-21T07:43:00.784Z,1.9
2023-01-21T07:44:00.766Z,1.9
2023-01-21T07:45:00.778Z,1.9
2023-01-21T07:46:00.948Z,1.9
2023-01-21T07:47:00.748Z,1.9
2023-01-21T07:48:00.735Z,1.9
2023-01-21T07:49:00.755Z,1.9
2023-01-21T07:50:00.821Z,1.9
2023-01-21T07:51:00.801Z,1.9
2023-01-21T07:52:00.754Z,2.7
2023-01-21T07:53:00.748Z,2.7
2023-01-21T07:54:00.792Z,2.7
2023-01-21T07:55:00.780Z,2.7
2023-01-21T07:56:02.715Z,2.7
2023-01-21T07:57:00.918Z,2.7
2023-01-21T07:58:00.740Z,2.7
2023-01-21T07:59:00.762Z,2.7
2023-01-21T08:00:00.890Z,2.7
2023-01-21T08:01:02.730Z,2.7
2023-01-21T08:02:00.891Z,1.4
2023-01-21T08:03:00.736Z,1.4
2023-01-21T08:04:00.796Z,1.4
2023-01-21T08:05:00.741Z,1.4
2023-01-21T08:06:00.855Z,1.4
2023-01-21T08:07:00.765Z,1.4
2023-01-21T08:08:00.934Z,1.4
2023-01-21T08:09:00.785Z,1.4
2023-01-21T08:10:01.100Z,1.4
2023-01-21T08:11:00.756Z,1.4
2023-01-21T08:12:01.881Z,1.3
2023-01-21T08:13:00.827Z,1.3
2023-01-21T08:14:00.792Z,1.3
2023-01-21T08:15:00.764Z,1.3
2023-01-21T08:16:00.790Z,1.3
2023-01-21T08:17:00.817Z,1.3
2023-01-21T08:18:00.738Z,1.3
2023-01-21T08:19:01.009Z,1.3
2023-01-21T08:20:00.767Z,1.3
2023-01-21T08:21:00.769Z,1.3
2023-01-21T08:22:00.809Z,1.5
2023-01-21T08:23:00.782Z,1.5
2023-01-21T08:24:00.740Z,1.5
2023-01-21T08:25:01.063Z,1.5
2023-01-21T08:26:01.645Z,1.5
2023-01-21T08:27:00.823Z,1.5
2023-01-21T08:28:00.743Z,1.5
2023-01-21T08:29:00.772Z,1.5
2023-01-21T08:30:00.897Z,1.5
2023-01-21T08:31:03.353Z,1.5
2023-01-21T08:32:00.783Z,1.2
2023-01-21T08:33:00.784Z,1.2
2023-01-21T08:34:00.770Z,1.2
2023-01-21T08:35:00.763Z,1.2
2023-01-21T08:36:01.932Z,1.2
2023-01-21T08:37:00.818Z,1.2
2023-01-21T08:38:01.086Z,1.2
2023-01-21T08:39:00.772Z,1.2
2023-01-21T08:40:00.824Z,1.2
2023-01-21T08:41:00.887Z,1.2
2023-01-21T08:42:00.784Z,1.2
2023-01-21T08:43:01.580Z,1.2
2023-01-21T08:44:00.767Z,1.2
2023-01-21T08:45:00.783Z,1.2
2023-01-21T08:46:00.840Z,1.2
2023-01-21T08:47:00.787Z,1.2
2023-01-21T08:48:01.409Z,1.2
2023-01-21T08:49:01.210Z,1.2
2023-01-21T08:50:00.749Z,1.2
2023-01-21T08:51:00.815Z,1.2
2023-01-21T08:52:00.895Z,1.2
2023-01-21T08:53:00.769Z,1.2
2023-01-21T08:54:00.887Z,1.2
2023-01-21T08:55:00.895Z,1.2
2023-01-21T08:56:01.636Z,1.2
2023-01-21T08:57:00.829Z,1.2
2023-01-21T08:58:00.855Z,1.2
2023-01-21T08:59:00.769Z,1.2
2023-01-21T09:00:00.743Z,1.2
2023-01-21T09:01:09.052Z,1.2
2023-01-21T09:02:00.873Z,1.1
2023-01-21T09:03:00.849Z,1.1
2023-01-21T09:04:00.755Z,1.1
2023-01-21T09:05:00.759Z,1.1
2023-01-21T09:06:01.459Z,1.1
2023-01-21T09:07:00.834Z,1.1
2023-01-21T09:08:00.737Z,1.1
2023-01-21T09:09:00.765Z,1.1
2023-01-21T09:10:01.422Z,1.1
2023-01-21T09:11:01.852Z,1.1
2023-01-21T09:12:00.764Z,1.2
2023-01-21T09:13:04.109Z,1.2
2023-01-21T09:14:00.920Z,1.2
2023-01-21T09:15:00.771Z,1.2
2023-01-21T09:16:00.943Z,1.2
2023-01-21T09:17:00.741Z,1.2
2023-01-21T09:18:00.785Z,1.2
2023-01-21T09:19:01.160Z,1.2
2023-01-21T09:20:00.752Z,1.2
2023-01-21T09:21:01.695Z,1.2
2023-01-21T09:22:00.739Z,1.5
2023-01-21T09:23:00.734Z,1.5
2023-01-21T09:24:00.994Z,1.5
2023-01-21T09:25:01.026Z,1.5
2023-01-21T09:26:05.259Z,1.5
2023-01-21T09:27:00.752Z,1.5
2023-01-21T09:28:00.761Z,1.5
2023-01-21T09:29:01.048Z,1.5
2023-01-21T09:30:00.770Z,1.5
2023-01-21T09:31:02.965Z,1.5
2023-01-21T09:32:01.059Z,1.5
2023-01-21T09:33:00.760Z,1.5
2023-01-21T09:34:01.990Z,1.5
2023-01-21T09:35:00.764Z,1.5
2023-01-21T09:36:01.931Z,1.5
2023-01-21T09:37:00.835Z,1.5
2023-01-21T09:38:00.743Z,1.5
2023-01-21T09:39:01.063Z,1.5
2023-01-21T09:40:00.862Z,1.5
2023-01-21T09:41:10.695Z,1.5
2023-01-21T09:42:00.826Z,1.2
2023-01-21T09:43:07.342Z,1.2
2023-01-21T09:44:00.746Z,1.2
2023-01-21T09:45:01.799Z,1.2
2023-01-21T09:46:04.140Z,1.2
2023-01-21T09:47:00.848Z,1.2
2023-01-21T09:48:02.307Z,1.2
2023-01-21T09:49:01.770Z,1.2
2023-01-21T09:50:10.656Z,1.2
2023-01-21T09:51:03.786Z,1.2
2023-01-21T09:52:01.819Z,1.4
2023-01-21T09:53:09.846Z,1.4
2023-01-21T09:54:02.201Z,1.4
2023-01-21T09:55:01.633Z,1.4
2023-01-21T09:56:01.934Z,1.4
2023-01-21T09:57:10.649Z,1.4
2023-01-21T09:58:04.117Z,1.4
2023-01-21T09:59:05.260Z,1.4
2023-01-21T10:00:10.621Z,1.4
2023-01-21T10:01:00.832Z,1.4
2023-01-21T10:02:02.713Z,1.6
2023-01-21T10:03:07.758Z,1.6
2023-01-21T10:04:07.397Z,1.6
2023-01-21T10:05:10.646Z,1.6
2023-01-21T10:06:04.098Z,1.6
2023-01-21T10:07:06.648Z,1.6
2023-01-21T10:08:10.663Z,1.6
2023-01-21T10:09:00.722Z,1.6
2023-01-21T10:10:08.141Z,1.6
2023-01-21T10:11:10.623Z,1.6
2023-01-21T10:12:00.713Z,1.6
2023-01-21T10:13:10.632Z,1.3
2023-01-21T10:14:00.739Z,1.3
2023-01-21T10:15:10.669Z,1.3
2023-01-21T10:16:04.124Z,1.3
2023-01-21T10:17:05.948Z,1.3
2023-01-21T10:18:08.932Z,1.3
2023-01-21T10:19:02.298Z,1.3
2023-01-21T10:20:10.639Z,1.3
2023-01-21T10:21:06.993Z,1.3
2023-01-21T10:22:04.242Z,1.5
2023-01-21T10:23:00.709Z,1.5
2023-01-21T10:24:05.497Z,1.5
2023-01-21T10:25:05.742Z,1.5
2023-01-21T10:26:05.220Z,1.5
2023-01-21T10:27:00.748Z,1.5
2023-01-21T10:28:03.018Z,1.5
2023-01-21T10:29:00.812Z,1.5
2023-01-21T10:30:07.526Z,1.5
2023-01-21T10:31:03.598Z,1.5
2023-01-21T10:32:03.686Z,1.5
2023-01-21T10:33:00.785Z,1.3
2023-01-21T10:34:01.389Z,1.3
2023-01-21T10:35:00.765Z,1.3
2023-01-21T10:36:01.845Z,1.3
2023-01-21T10:37:06.136Z,1.3
2023-01-21T10:38:06.073Z,1.3
2023-01-21T10:39:07.907Z,1.3
2023-01-21T10:40:08.600Z,1.3
2023-01-21T10:41:00.860Z,1.3
2023-01-21T10:42:00.776Z,1.3
2023-01-21T10:43:02.572Z,1.0
2023-01-21T10:44:08.209Z,1.0
2023-01-21T10:45:06.160Z,1.0
2023-01-21T10:46:01.864Z,1.0
2023-01-21T10:47:05.718Z,1.0
2023-01-21T10:48:09.919Z,1.0
2023-01-21T10:49:04.107Z,1.0
2023-01-21T10:50:10.545Z,1.0
2023-01-21T10:51:00.730Z,1.0
2023-01-21T10:52:08.192Z,1.0
2023-01-21T10:53:09.240Z,1.0
2023-01-21T10:54:10.649Z,1.0
2023-01-21T10:55:00.750Z,1.0
2023-01-21T10:56:01.848Z,1.0
2023-01-21T10:57:04.099Z,1.0
2023-01-21T10:58:00.775Z,1.0
2023-01-21T10:59:04.811Z,1.0
2023-01-21T11:00:02.558Z,1.0
2023-01-21T11:01:04.319Z,1.0
2023-01-21T11:02:09.031Z,1.0
2023-01-21T11:03:07.579Z,1.0
2023-01-21T11:04:04.903Z,1.0
2023-01-21T11:05:02.414Z,1.0
2023-01-21T11:06:02.033Z,1.0
2023-01-21T11:07:03.512Z,1.0
2023-01-21T11:08:01.230Z,1.0
2023-01-21T11:09:03.192Z,1.0
2023-01-21T11:10:02.139Z,1.0
2023-01-21T11:11:01.910Z,1.0
2023-01-21T11:12:00.871Z,1.0
2023-01-21T11:13:00.742Z,0.7
2023-01-21T11:14:01.318Z,0.7
2023-01-21T11:15:02.133Z,0.7
2023-01-21T11:16:01.318Z,0.7
2023-01-21T11:17:00.882Z,0.7
2023-01-21T11:18:10.648Z,0.7
2023-01-21T11:19:01.751Z,0.7
2023-01-21T11:20:03.275Z,0.7
2023-01-21T11:21:02.579Z,0.7
2023-01-21T11:27:01.026Z,0.9
2023-01-21T11:28:00.903Z,0.9
2023-01-21T11:29:10.337Z,0.9
2023-01-21T11:30:00.617Z,0.9
2023-01-21T11:31:06.202Z,0.9
2023-01-21T11:32:00.586Z,0.9
2023-01-21T11:33:10.446Z,0.7
2023-01-21T11:34:04.715Z,0.7
2023-01-21T11:35:10.507Z,0.7
2023-01-21T11:36:08.925Z,0.7
2023-01-21T11:37:01.768Z,0.7
2023-01-21T11:38:00.658Z,0.7
2023-01-21T11:39:01.850Z,0.7
2023-01-21T11:40:05.344Z,0.7
2023-01-21T11:41:11.192Z,0.7
2023-01-21T11:42:04.984Z,0.7
2023-01-21T11:43:00.426Z,1.1
2023-01-21T11:44:10.331Z,1.1
2023-01-21T11:45:10.328Z,1.1
2023-01-21T11:46:10.477Z,1.1
2023-01-21T11:47:00.615Z,1.1
2023-01-21T11:48:00.744Z,1.1
2023-01-21T11:49:07.921Z,1.1
2023-01-21T11:50:08.873Z,1.1
2023-01-21T11:51:05.426Z,1.1
2023-01-21T11:52:10.315Z,1.1
2023-01-21T11:53:08.850Z,0.9
2023-01-21T11:54:05.878Z,0.9
2023-01-21T11:55:01.762Z,0.9
2023-01-21T11:56:02.045Z,0.9
2023-01-21T11:57:01.331Z,0.9
2023-01-21T11:58:00.608Z,0.9
2023-01-21T11:59:00.886Z,0.9
2023-01-21T12:00:06.724Z,0.9
2023-01-21T12:01:02.211Z,0.9
2023-01-21T12:02:07.095Z,0.9
2023-01-21T12:03:03.178Z,1.2
2023-01-21T12:04:00.662Z,1.2
2023-01-21T12:05:00.442Z,1.2
2023-01-21T12:06:01.158Z,1.2
2023-01-21T12:07:00.734Z,1.2
2023-01-21T12:08:02.318Z,1.2
2023-01-21T12:09:03.675Z,1.2
2023-01-21T12:10:05.405Z,1.2
2023-01-21T12:11:01.684Z,1.2
2023-01-21T12:12:10.388Z,1.2
2023-01-21T12:13:10.318Z,1.2
2023-01-21T12:14:10.395Z,1.2
2023-01-21T12:15:09.568Z,1.2
2023-01-21T12:16:01.512Z,1.2
2023-01-21T12:17:00.417Z,1.2
2023-01-21T12:18:01.568Z,1.2
2023-01-21T12:19:00.409Z,1.2
2023-01-21T12:20:03.856Z,1.2
2023-01-21T12:21:01.439Z,1.2
2023-01-21T12:22:01.619Z,1.2
2023-01-21T12:23:00.424Z,1.0
2023-01-21T12:24:07.114Z,1.0
2023-01-21T12:25:10.362Z,1.0
2023-01-21T12:26:07.004Z,1.0
2023-01-21T12:27:10.299Z,1.0
2023-01-21T12:28:05.881Z,1.0
2023-01-21T12:29:00.418Z,1.0
2023-01-21T12:30:00.456Z,1.0
2023-01-21T12:31:07.895Z,1.0
2023-01-21T12:32:07.834Z,1.0
2023-01-21T12:33:10.355Z,1.0
2023-01-21T12:34:00.424Z,1.0
2023-01-21T12:35:03.830Z,1.0
2023-01-21T12:36:06.281Z,1.0
2023-01-21T12:37:10.349Z,1.0
2023-01-21T12:38:05.559Z,1.0
2023-01-21T12:39:10.327Z,1.0
2023-01-21T12:40:02.741Z,1.0
2023-01-21T12:41:04.773Z,1.0
2023-01-21T12:42:06.013Z,1.0
2023-01-21T12:43:04.791Z,0.8
2023-01-21T12:44:10.328Z,0.8
2023-01-21T12:45:03.553Z,0.8
2023-01-21T12:46:00.450Z,0.8
2023-01-21T12:47:04.939Z,0.8
2023-01-21T12:48:10.397Z,0.8
2023-01-21T12:49:03.251Z,0.8
2023-01-21T12:50:05.179Z,0.8
2023-01-21T12:51:03.418Z,0.8
2023-01-21T12:52:03.939Z,0.8
2023-01-21T12:53:05.160Z,1.4
2023-01-21T12:54:10.344Z,1.4
2023-01-21T12:55:06.077Z,1.4
2023-01-21T12:56:04.627Z,1.4
2023-01-21T12:57:05.666Z,1.4
2023-01-21T12:58:03.805Z,1.4
2023-01-21T12:59:07.871Z,1.4
2023-01-21T13:00:00.565Z,1.4
2023-01-21T13:01:05.040Z,1.4
2023-01-21T13:02:01.577Z,1.4
2023-01-21T13:03:10.328Z,1.0
2023-01-21T13:04:10.341Z,1.0
2023-01-21T13:05:06.633Z,1.0
2023-01-21T13:06:05.201Z,1.0
2023-01-21T13:07:00.428Z,1.0
2023-01-21T13:08:01.479Z,1.0
2023-01-21T13:09:11.680Z,1.0
2023-01-21T13:10:03.809Z,1.0
2023-01-21T13:11:05.027Z,1.0
2023-01-21T13:12:08.877Z,1.0
2023-01-21T13:13:05.261Z,1.1
2023-01-21T13:14:10.308Z,1.1
2023-01-21T13:15:08.807Z,1.1
2023-01-21T13:16:04.854Z,1.1
2023-01-21T13:17:02.721Z,1.1
2023-01-21T13:18:03.565Z,1.1
2023-01-21T13:19:00.488Z,1.1
2023-01-21T13:20:01.708Z,1.1
2023-01-21T13:21:08.301Z,1.1
2023-01-21T13:22:00.439Z,1.1
2023-01-21T13:23:03.845Z,1.1
2023-01-21T13:24:10.331Z,1.1
2023-01-21T13:25:01.461Z,1.1
2023-01-21T13:26:01.492Z,1.1
2023-01-21T13:27:10.307Z,1.1
2023-01-21T13:28:10.330Z,1.1
2023-01-21T13:29:01.440Z,1.1
2023-01-21T13:30:10.302Z,1.1
2023-01-21T13:31:10.402Z,1.1
2023-01-21T13:32:00.484Z,1.1
2023-01-21T13:33:01.431Z,1.2
2023-01-21T13:34:10.533Z,1.2
2023-01-21T13:35:07.947Z,1.2
2023-01-21T13:36:01.533Z,1.2
2023-01-21T13:37:01.502Z,1.2
2023-01-21T13:38:10.326Z,1.2
2023-01-21T13:39:00.457Z,1.2
2023-01-21T13:40:10.348Z,1.2
2023-01-21T13:41:01.499Z,1.2
2023-01-21T13:42:03.820Z,1.2
2023-01-21T13:43:01.466Z,1.3
2023-01-21T13:44:00.417Z,1.3
2023-01-21T13:45:05.637Z,1.3
2023-01-21T13:46:00.580Z,1.3
2023-01-21T13:47:10.303Z,1.3
2023-01-21T13:48:09.715Z,1.3
2023-01-21T13:49:10.182Z,1.3
2023-01-21T13:50:00.446Z,1.3
2023-01-21T13:51:00.572Z,1.3
2023-01-21T13:52:00.446Z,1.3